WetterOnline ( https://www.wetteronline.de )

Wetter aktuell Bad Homburg

Aktuelles Wetter: Kleiner Feldberg (802m)

6-stündlich | Neueste Meldungen
Ortszeit Temperatur Wetter
Sa, 28.11. 13:00 5.6° C wolkenlos
Sa, 28.11. 7:00 4.9° C wolkenlos
Sa, 28.11. 1:00 4.9° C wolkenlos
Fr, 27.11. 19:00 4.3° C wolkenlos
Fr, 27.11. 13:00 7.4° C wolkenlos
Fr, 27.11. 7:00 3.9° C wolkig
Fr, 27.11. 1:00 3.7° C bedeckt
Do, 26.11. 19:00 3.2° C bedeckt
Ortszeit Temperatur Wetter
Sa, 28.11. 18:30 2.2° C wolkenlos
Sa, 28.11. 18:20 2.2° C wolkenlos
Sa, 28.11. 18:10 2.3° C wolkenlos
Sa, 28.11. 18:00 2.2° C fast wolkenlos
Sa, 28.11. 17:50 2.2° C fast wolkenlos
Sa, 28.11. 17:40 2.4° C leicht bewölkt
Sa, 28.11. 17:30 2.2° C leicht bewölkt
Sa, 28.11. 17:00 2.2° C wolkenlos
Sa, 28.11. 16:30 2.1° C fast wolkenlos
Sa, 28.11. 16:00 2.4° C leicht bewölkt
Sa, 28.11. 15:30 3.3° C wolkig
Ortszeit Relative Feuchte Sichtweite
Sa, 28.11. 13:00 68% 60 km
Sa, 28.11. 7:00 58% >70 km
Sa, 28.11. 1:00 66% 50 km
Fr, 27.11. 19:00 79% 35 km
Fr, 27.11. 13:00 72% 45 km
Fr, 27.11. 7:00 88% 29 km
Fr, 27.11. 1:00 81% 35 km
Do, 26.11. 19:00 85% 50 km
Ortszeit Relative Feuchte Sichtweite
Sa, 28.11. 18:30 91% 40 km
Sa, 28.11. 18:20 91% -
Sa, 28.11. 18:10 90% -
Sa, 28.11. 18:00 90% 45 km
Sa, 28.11. 17:50 90% -
Sa, 28.11. 17:40 90% -
Sa, 28.11. 17:30 89% 45 km
Sa, 28.11. 17:00 90% 40 km
Sa, 28.11. 16:30 89% 45 km
Sa, 28.11. 16:00 87% 40 km
Sa, 28.11. 15:30 84% 50 km
Ortszeit Niederschlagsmenge Niederschlagsart
Sa, 28.11. 13:00 0.0 l/m2 in 6 Std. -
Sa, 28.11. 7:00 0.0 l/m2 in 12 Std. -
Sa, 28.11. 1:00 0.0 l/m2 in 6 Std. -
Fr, 27.11. 19:00 0.0 l/m2 in 12 Std. -
Fr, 27.11. 13:00 0.0 l/m2 in 6 Std. -
Fr, 27.11. 7:00 0.0 l/m2 in 12 Std. -
Fr, 27.11. 1:00 0.0 l/m2 in 6 Std. -
Do, 26.11. 19:00 0.1 l/m2 in 12 Std. -
Ortszeit Niederschlagsmenge Niederschlagsart
Sa, 28.11. 18:30 0.0 l/m2 in 1 Std. -
Sa, 28.11. 18:20 keine Meldung -
Sa, 28.11. 18:10 keine Meldung -
Sa, 28.11. 18:00 0.0 l/m2 in 1 Std. -
Sa, 28.11. 17:50 keine Meldung -
Sa, 28.11. 17:40 keine Meldung -
Sa, 28.11. 17:30 0.0 l/m2 in 1 Std. -
Sa, 28.11. 17:00 0.0 l/m2 in 1 Std. -
Sa, 28.11. 16:30 0.0 l/m2 in 1 Std. -
Sa, 28.11. 16:00 0.0 l/m2 in 1 Std. -
Sa, 28.11. 15:30 0.0 l/m2 in 1 Std. -
Ortszeit Stärke Spitze Richtung
km/h Bft. km/h Grad Sektor
Sa, 28.11. 13:00 14 3 22 110° O
Sa, 28.11. 7:00 13 3 17 90° O
Sa, 28.11. 1:00 13 3 17 150° SO
Fr, 27.11. 19:00 9 2 15 160° S
Fr, 27.11. 13:00 7 2 14 210° SW
Fr, 27.11. 7:00 7 2 25 220° SW
Fr, 27.11. 1:00 14 3 29 200° S
Do, 26.11. 19:00 11 2 25 210° SW
Ortszeit Stärke Spitze Richtung
km/h Bft. km/h Grad Sektor
Sa, 28.11. 18:30 18 3 25 80° O
Sa, 28.11. 18:20 18 3 - 80° O
Sa, 28.11. 18:10 18 3 - 80° O
Sa, 28.11. 18:00 18 3 29 90° O
Sa, 28.11. 17:50 18 3 - 90° O
Sa, 28.11. 17:40 20 4 - 90° O
Sa, 28.11. 17:30 19 3 26 90° O
Sa, 28.11. 17:00 19 3 28 90° O
Sa, 28.11. 16:30 19 3 28 100° O
Sa, 28.11. 16:00 19 3 26 100° O
Sa, 28.11. 15:30 17 3 26 100° O
Ortszeit Untergrenze Bedeckung Gattung
total tief tief mittel hoch
Sa, 28.11. 13:00 - 0/8 0/8 - - -
Sa, 28.11. 7:00 - 0/8 0/8 - - -
Sa, 28.11. 1:00 - 0/8 0/8 - - -
Fr, 27.11. 19:00 - 0/8 0/8 - - -
Fr, 27.11. 13:00 - 0/8 0/8 - - -
Fr, 27.11. 7:00 1020 m 6/8 6/8 - - -
Fr, 27.11. 1:00 780 m 8/8 8/8 - - -
Do, 26.11. 19:00 960 m 8/8 8/8 - - -
Ortszeit Bedeckungsgrad in Achtel und Wolkenuntergrenze
Sa, 28.11. 18:30 keine Wolken
Sa, 28.11. 18:20 keine Wolken
Sa, 28.11. 18:10 keine Wolken
Sa, 28.11. 18:00 1(9000m)
Sa, 28.11. 17:50 1(9000m)
Sa, 28.11. 17:40 3(9000m)
Sa, 28.11. 17:30 4(9000m)
Sa, 28.11. 17:00 keine Wolken
Sa, 28.11. 16:30 1(9000m)
Sa, 28.11. 16:00 3(9000m)
Sa, 28.11. 15:30 7(9000m)
Ortszeit Stationsdruck (hPa) Tendenz (hPa in 3 Std.)
Sa, 28.11. 13:00 923 - 0,4
Sa, 28.11. 7:00 922 0,0
Sa, 28.11. 1:00 923 - 0,1
Fr, 27.11. 19:00 922 + 0,1
Fr, 27.11. 13:00 923 - 0,2
Fr, 27.11. 7:00 922 - 0,3
Fr, 27.11. 1:00 923 - 0,4
Do, 26.11. 19:00 924 + 0,1
Ortszeit Stationsdruck (hPa) Tendenz (hPa in 3 Std.)
Sa, 28.11. 18:30 923 + 0,3
Sa, 28.11. 18:20 923 keine Meldung
Sa, 28.11. 18:10 923 keine Meldung
Sa, 28.11. 18:00 923 + 0,2
Sa, 28.11. 17:50 923 keine Meldung
Sa, 28.11. 17:40 923 keine Meldung
Sa, 28.11. 17:30 923 + 0,2
Sa, 28.11. 17:00 923 + 0,1
Sa, 28.11. 16:30 923 - 0,2
Sa, 28.11. 16:00 923 - 0,2
Sa, 28.11. 15:30 923 - 0,3
Ortszeit Schneehöhe (cm)
Sa, 28.11. 13:00 0
Sa, 28.11. 7:00 0
Sa, 28.11. 1:00 0
Fr, 27.11. 19:00 0
Fr, 27.11. 13:00 0
Fr, 27.11. 7:00 0
Fr, 27.11. 1:00 0
Do, 26.11. 19:00 0
Ortszeit Schneehöhe (cm)
Sa, 28.11. 18:30 0
Sa, 28.11. 18:20 0
Sa, 28.11. 18:10 0
Sa, 28.11. 18:00 0
Sa, 28.11. 17:50 0
Sa, 28.11. 17:40 0
Sa, 28.11. 17:30 0
Sa, 28.11. 17:00 0
Sa, 28.11. 16:30 0
Sa, 28.11. 16:00 0
Sa, 28.11. 15:30 0
Link zu dieser Seite / Seite empfehlen

Das Wetter in ...